Terminal Aerodrome Forecast
Issued by NWS

Home | Current Version | Previous Version | Text Only | Print | Product List | Glossary On
Versions: 1 2 3 4 5 6 7 8 9 10 11 12 13 14 15 16 17 18 19 20 21 22 23 24 25 26 27 28 29 30 31
000
FTUS46 KLOX 022300
TAFLAX
TAF
KLAX 022334Z 0300/0406 26012KT P6SM FEW020
     FM030400 25005KT P6SM OVC015
     FM031500 25006KT 5SM HZ OVC020
     FM032000 26009KT 6SM HZ BKN020
     FM032200 25012KT P6SM SCT025
     FM040300 26009KT P6SM OVC020=

USA.gov is the U.S. government's official web portal to all federal, state and local government web resources and services.